Time;durP1;ratioP1;P1;durP2;ratioP2;P2;SDS_P1;SDS_P2;PMS_P1;PMS_P2;Temp;Humidity;BMP_temperature;BMP_pressure;BME280_temperature;BME280_humidity;BME280_pressure;Samples;Min_cycle;Max_cycle;Signal;HPM_P1;HPM_P2
2021/05/31 00:00:32;;;;;;;8.00;4.80;;;15.50;64.90;;;;;;5073202;28;20028;-71
2021/05/31 00:02:57;;;;;;;7.18;4.72;;;15.50;65.10;;;;;;5074332;28;20464;-73
2021/05/31 00:05:25;;;;;;;9.10;5.05;;;15.50;65.30;;;;;;5074411;28;20021;-72
2021/05/31 00:07:54;;;;;;;6.50;4.60;;;15.40;65.50;;;;;;5072990;28;20030;-72
2021/05/31 00:10:21;;;;;;;5.13;4.45;;;15.40;65.60;;;;;;5074252;28;20106;-72
2021/05/31 00:12:47;;;;;;;7.30;4.40;;;15.30;65.70;;;;;;5074169;28;20140;-72
2021/05/31 00:15:13;;;;;;;7.93;4.60;;;15.30;65.70;;;;;;5072912;28;20032;-72
2021/05/31 00:17:39;;;;;;;6.85;4.28;;;15.30;65.80;;;;;;5072885;28;20503;-71
2021/05/31 00:20:10;;;;;;;6.45;4.32;;;15.30;65.90;;;;;;5074075;28;20028;-72
2021/05/31 00:22:36;;;;;;;6.85;4.95;;;15.30;66.10;;;;;;5074070;28;20024;-72
2021/05/31 00:25:03;;;;;;;8.02;4.65;;;15.20;66.30;;;;;;5072808;28;20033;-71
2021/05/31 00:27:29;;;;;;;9.95;4.80;;;15.20;66.40;;;;;;5072653;28;20024;-72
2021/05/31 00:29:55;;;;;;;8.68;5.05;;;15.20;66.50;;;;;;5072581;28;20039;-72
2021/05/31 00:32:21;;;;;;;7.45;4.72;;;15.20;66.70;;;;;;5072693;28;20123;-72
2021/05/31 00:34:46;;;;;;;9.48;5.45;;;15.10;66.70;;;;;;5073971;28;20032;-72
2021/05/31 00:37:13;;;;;;;8.43;5.10;;;15.10;66.90;;;;;;5072599;28;20032;-72
2021/05/31 00:39:39;;;;;;;7.88;5.53;;;15.10;67.10;;;;;;5073869;28;20075;-72
2021/05/31 00:42:05;;;;;;;7.15;4.82;;;15.10;67.20;;;;;;5072523;28;20028;-72
2021/05/31 00:44:31;;;;;;;7.78;5.55;;;15.10;67.30;;;;;;5073764;28;20041;-72
2021/05/31 00:46:56;;;;;;;7.95;5.18;;;15.00;67.50;;;;;;5072388;28;20174;-72
2021/05/31 00:49:25;;;;;;;8.60;6.10;;;15.00;67.60;;;;;;5072432;28;20472;-72
2021/05/31 00:51:51;;;;;;;8.18;5.00;;;15.00;67.80;;;;;;5072284;28;20021;-72
2021/05/31 00:54:19;;;;;;;8.10;5.53;;;15.00;67.80;;;;;;5072840;28;20043;-72
2021/05/31 00:56:46;;;;;;;7.97;5.60;;;15.00;68.00;;;;;;5072171;28;20033;-73
2021/05/31 00:59:13;;;;;;;11.40;6.20;;;14.90;68.00;;;;;;5072182;28;20074;-72
2021/05/31 01:01:39;;;;;;;9.13;5.82;;;14.90;68.40;;;;;;5073344;28;20065;-72
2021/05/31 01:04:05;;;;;;;8.50;6.00;;;14.90;68.70;;;;;;5072082;28;20028;-72
2021/05/31 01:06:38;;;;;;;8.07;5.57;;;14.90;68.70;;;;;;5072002;28;20029;-72
2021/05/31 01:09:11;;;;;;;9.07;6.18;;;14.80;68.80;;;;;;5071922;28;20448;-72
2021/05/31 01:12:13;;;;;;;9.13;5.38;;;14.80;69.00;;;;;;5072841;28;20488;-72
2021/05/31 01:14:57;;;;;;;10.40;5.88;;;14.70;69.20;;;;;;5073181;28;20089;-72
2021/05/31 01:17:59;;;;;;;8.98;6.68;;;14.70;69.40;;;;;;5071559;28;20032;-73
2021/05/31 01:20:52;;;;;;;10.88;6.20;;;14.70;69.60;;;;;;5052523;28;20052;-72
2021/05/31 01:23:20;;;;;;;7.75;5.72;;;14.60;69.70;;;;;;5071732;28;20083;-71
2021/05/31 01:25:52;;;;;;;10.10;5.95;;;14.50;69.50;;;;;;5071652;28;20052;-72
2021/05/31 01:28:40;;;;;;;8.55;5.80;;;14.50;69.70;;;;;;5071653;28;20127;-72
2021/05/31 01:31:06;;;;;;;9.10;5.80;;;14.50;69.90;;;;;;5071568;28;20028;-72
2021/05/31 01:33:35;;;;;;;8.38;5.97;;;14.50;69.80;;;;;;5071454;28;20035;-72
2021/05/31 01:36:01;;;;;;;9.05;6.20;;;14.50;69.80;;;;;;5071596;28;20036;-72
2021/05/31 01:38:30;;;;;;;8.30;6.20;;;14.50;69.90;;;;;;5072762;28;20033;-72
2021/05/31 01:40:57;;;;;;;9.73;6.18;;;14.50;70.10;;;;;;5072723;28;20533;-72
2021/05/31 01:43:24;;;;;;;8.18;6.03;;;14.60;70.20;;;;;;5072816;28;20062;-72
2021/05/31 01:45:50;;;;;;;7.30;5.28;;;14.50;70.20;;;;;;5072715;28;20547;-72
2021/05/31 01:48:16;;;;;;;9.55;5.90;;;14.50;70.20;;;;;;5071458;28;20115;-72
2021/05/31 01:50:42;;;;;;;9.55;6.20;;;14.50;70.30;;;;;;5072997;28;20047;-72
2021/05/31 01:53:08;;;;;;;10.52;6.50;;;14.50;70.40;;;;;;5071373;28;20391;-72
2021/05/31 01:55:35;;;;;;;8.50;5.93;;;14.50;70.50;;;;;;5071347;28;20062;-72
2021/05/31 01:58:01;;;;;;;9.23;6.55;;;14.40;70.70;;;;;;5073033;28;20029;-73
2021/05/31 02:00:27;;;;;;;10.60;6.70;;;14.40;70.80;;;;;;5072607;28;20396;-72
2021/05/31 02:02:53;;;;;;;7.68;6.60;;;14.30;70.90;;;;;;5072559;28;20524;-72
2021/05/31 02:05:20;;;;;;;10.10;6.72;;;14.30;71.00;;;;;;5074592;28;20062;-72
2021/05/31 02:07:46;;;;;;;9.55;6.63;;;14.30;71.10;;;;;;5075130;28;20186;-72
2021/05/31 02:10:13;;;;;;;9.50;6.68;;;14.30;71.30;;;;;;5074923;28;20054;-72
2021/05/31 02:12:53;;;;;;;9.27;6.70;;;14.30;71.40;;;;;;5076297;28;20057;-72
2021/05/31 02:15:25;;;;;;;13.65;7.35;;;14.20;71.50;;;;;;5076373;28;20052;-72
2021/05/31 02:18:06;;;;;;;10.90;7.25;;;14.20;71.50;;;;;;5074850;28;20511;-71
2021/05/31 02:20:33;;;;;;;10.60;7.07;;;14.10;71.80;;;;;;5076030;28;20494;-72
2021/05/31 02:23:04;;;;;;;8.38;6.82;;;14.10;71.70;;;;;;5076094;28;20029;-72
2021/05/31 02:25:30;;;;;;;10.35;6.93;;;14.10;72.00;;;;;;5076196;28;20108;-72
2021/05/31 02:27:58;;;;;;;11.75;7.53;;;14.10;72.00;;;;;;5074915;28;20044;-72
2021/05/31 02:30:24;;;;;;;11.10;7.22;;;14.00;72.20;;;;;;5076090;28;20035;-72
2021/05/31 02:32:52;;;;;;;10.43;6.85;;;14.00;72.30;;;;;;5076082;28;20052;-72
2021/05/31 02:35:19;;;;;;;10.70;7.47;;;14.00;72.40;;;;;;5076062;28;20050;-72
2021/05/31 02:37:44;;;;;;;10.95;7.40;;;13.90;72.30;;;;;;5074486;28;20436;-72
2021/05/31 02:40:11;;;;;;;11.73;7.10;;;14.00;72.40;;;;;;5074443;28;20032;-72
2021/05/31 02:42:42;;;;;;;13.05;7.53;;;13.90;72.50;;;;;;5074595;28;20023;-72
2021/05/31 02:45:09;;;;;;;11.38;7.82;;;13.90;72.60;;;;;;5076015;28;20036;-72
2021/05/31 02:47:34;;;;;;;10.32;6.70;;;13.90;73.30;;;;;;5074514;28;20142;-72
2021/05/31 02:50:00;;;;;;;10.32;6.65;;;13.90;72.60;;;;;;5074388;28;20124;-72
2021/05/31 02:52:26;;;;;;;12.18;6.82;;;13.90;72.50;;;;;;5074393;28;20511;-71
2021/05/31 02:54:51;;;;;;;12.05;6.95;;;13.90;72.50;;;;;;5075701;28;20094;-72
2021/05/31 02:57:18;;;;;;;11.35;7.68;;;13.90;72.60;;;;;;5075630;28;20036;-72
2021/05/31 02:59:44;;;;;;;10.25;6.88;;;13.90;72.50;;;;;;5073996;28;20093;-72
2021/05/31 03:02:10;;;;;;;8.48;6.95;;;13.80;72.50;;;;;;5075836;28;20125;-72
2021/05/31 03:04:36;;;;;;;8.05;6.78;;;13.90;72.50;;;;;;5074230;28;20032;-72
2021/05/31 03:07:01;;;;;;;9.90;6.70;;;13.90;72.40;;;;;;5074036;28;20384;-72
2021/05/31 03:09:27;;;;;;;11.82;7.18;;;13.90;72.30;;;;;;5075395;28;20113;-72
2021/05/31 03:11:53;;;;;;;10.02;6.90;;;13.90;72.20;;;;;;5075008;28;20049;-72
2021/05/31 03:14:18;;;;;;;11.90;7.05;;;13.90;72.20;;;;;;5075266;28;20024;-72
2021/05/31 03:16:44;;;;;;;11.05;7.45;;;13.90;72.10;;;;;;5074080;28;20020;-72
2021/05/31 03:19:10;;;;;;;10.18;7.63;;;13.90;72.10;;;;;;5075530;28;20029;-72
2021/05/31 03:21:35;;;;;;;10.35;6.60;;;13.90;72.10;;;;;;5073659;28;20040;-72
2021/05/31 03:24:01;;;;;;;10.52;7.18;;;13.90;72.20;;;;;;5075020;28;20111;-72
2021/05/31 03:26:27;;;;;;;10.82;7.53;;;13.80;72.10;;;;;;5073846;28;20111;-72
2021/05/31 03:28:52;;;;;;;11.65;7.53;;;13.80;72.20;;;;;;5073771;28;20031;-72
2021/05/31 03:31:18;;;;;;;12.05;7.38;;;13.70;72.30;;;;;;5073603;28;20124;-72
2021/05/31 03:33:43;;;;;;;10.98;7.00;;;13.70;72.30;;;;;;5073618;28;20476;-72
2021/05/31 03:36:09;;;;;;;12.07;7.97;;;13.70;72.40;;;;;;5073550;28;20395;-72
2021/05/31 03:38:35;;;;;;;9.70;7.53;;;13.70;72.40;;;;;;5073315;28;20031;-72
2021/05/31 03:41:00;;;;;;;13.20;7.85;;;13.60;72.50;;;;;;5073317;28;20376;-72
2021/05/31 03:43:26;;;;;;;12.75;7.82;;;13.60;72.50;;;;;;5074766;28;20021;-72
2021/05/31 03:45:52;;;;;;;12.88;8.13;;;13.70;72.70;;;;;;5073324;28;20050;-72
2021/05/31 03:48:19;;;;;;;11.77;8.30;;;13.70;72.60;;;;;;5073311;28;20024;-72
2021/05/31 03:50:44;;;;;;;10.85;7.82;;;13.70;72.70;;;;;;5074210;28;20021;-72
2021/05/31 03:53:10;;;;;;;9.40;6.70;;;13.70;72.70;;;;;;5074431;28;20454;-72
2021/05/31 03:55:36;;;;;;;10.40;7.65;;;13.70;72.70;;;;;;5074359;28;20024;-72
2021/05/31 03:58:01;;;;;;;10.60;7.50;;;13.70;72.60;;;;;;5074450;28;20025;-72
2021/05/31 04:00:28;;;;;;;8.90;7.18;;;13.70;72.50;;;;;;5074574;28;20028;-72
2021/05/31 04:02:54;;;;;;;10.55;7.80;;;13.70;72.50;;;;;;5072858;28;20056;-73
2021/05/31 04:05:21;;;;;;;12.27;8.07;;;13.70;72.60;;;;;;5074253;28;20066;-72
2021/05/31 04:13:18;;;;;;;10.38;7.60;;;13.70;72.70;;;;;;5074413;28;20047;-72
2021/05/31 04:15:44;;;;;;;11.82;7.75;;;13.70;72.70;;;;;;5072670;28;20021;-72
2021/05/31 04:18:10;;;;;;;12.32;8.48;;;13.70;72.70;;;;;;5074300;28;20035;-72
2021/05/31 04:20:35;;;;;;;10.63;8.38;;;13.70;72.80;;;;;;5074004;28;20041;-73
2021/05/31 04:23:01;;;;;;;10.82;7.90;;;13.70;72.80;;;;;;5072662;28;20020;-73
2021/05/31 04:25:27;;;;;;;10.07;7.88;;;13.60;72.80;;;;;;5072617;28;20063;-72
2021/05/31 04:27:53;;;;;;;12.20;7.80;;;13.70;72.80;;;;;;5072307;28;20025;-72
2021/05/31 04:30:19;;;;;;;10.32;7.53;;;13.70;72.70;;;;;;5074247;28;20029;-72
2021/05/31 04:32:45;;;;;;;11.52;7.68;;;13.70;72.70;;;;;;5072416;28;20024;-72
2021/05/31 04:35:11;;;;;;;8.77;7.18;;;13.70;72.70;;;;;;5073695;28;20048;-72
2021/05/31 04:37:36;;;;;;;12.98;7.60;;;13.80;72.60;;;;;;5073801;28;20040;-73
2021/05/31 04:40:04;;;;;;;11.52;7.38;;;13.90;73.20;;;;;;5072220;28;20025;-73
2021/05/31 04:42:29;;;;;;;10.68;7.53;;;13.90;72.40;;;;;;5073536;28;20066;-73
2021/05/31 04:44:55;;;;;;;11.20;7.53;;;13.90;72.30;;;;;;5073579;28;20415;-73
2021/05/31 04:47:21;;;;;;;9.02;7.20;;;13.90;72.20;;;;;;5073359;28;20035;-72
2021/05/31 04:49:46;;;;;;;9.63;6.95;;;14.00;72.20;;;;;;5072031;28;20550;-72
2021/05/31 04:52:12;;;;;;;9.52;7.35;;;14.00;72.10;;;;;;5073947;28;20028;-72
2021/05/31 04:54:38;;;;;;;9.48;7.10;;;14.00;72.00;;;;;;5073383;28;20028;-73
2021/05/31 04:57:04;;;;;;;9.02;6.65;;;14.10;72.00;;;;;;5072099;28;20486;-72
2021/05/31 04:59:29;;;;;;;13.35;7.70;;;14.20;72.00;;;;;;5071875;28;20369;-72
2021/05/31 05:01:55;;;;;;;8.73;6.88;;;14.20;71.90;;;;;;5073000;28;20075;-73
2021/05/31 05:04:21;;;;;;;9.65;7.47;;;14.20;71.80;;;;;;5071767;28;20051;-72
2021/05/31 05:06:46;;;;;;;12.02;8.13;;;14.20;71.70;;;;;;5073391;28;20206;-73
2021/05/31 05:09:12;;;;;;;9.48;7.50;;;14.30;71.70;;;;;;5071826;28;20090;-73
2021/05/31 05:11:38;;;;;;;11.13;7.10;;;14.30;71.60;;;;;;5071634;28;20557;-72
2021/05/31 05:14:03;;;;;;;10.43;7.28;;;14.30;71.50;;;;;;5071770;28;20082;-72
2021/05/31 05:16:29;;;;;;;11.55;6.75;;;14.40;71.40;;;;;;5071795;28;20033;-73
2021/05/31 05:18:55;;;;;;;11.65;7.40;;;14.40;71.40;;;;;;5071785;28;20356;-72
2021/05/31 05:21:21;;;;;;;9.30;7.20;;;14.50;71.30;;;;;;5072949;28;20033;-72
2021/05/31 05:23:48;;;;;;;11.80;7.38;;;14.50;71.20;;;;;;5071748;28;20107;-73
2021/05/31 05:26:15;;;;;;;9.40;6.63;;;14.60;71.20;;;;;;5071756;28;20021;-72
2021/05/31 05:28:41;;;;;;;10.35;7.07;;;14.60;71.10;;;;;;5073076;28;20393;-72
2021/05/31 05:31:09;;;;;;;9.90;7.10;;;14.70;71.00;;;;;;5071680;28;20040;-72
2021/05/31 05:33:36;;;;;;;8.48;6.72;;;14.70;71.00;;;;;;5071651;28;20484;-72
2021/05/31 05:44:26;;;;;;;9.65;6.32;;;14.90;70.70;;;;;;5077137;28;20456;-73
2021/05/31 05:49:35;;;;;;;9.57;6.70;;;15.00;70.60;;;;;;5076979;28;20416;-73
2021/05/31 05:52:01;;;;;;;10.48;6.95;;;15.10;70.50;;;;;;5075620;28;20025;-72
2021/05/31 05:54:26;;;;;;;9.98;6.63;;;15.10;70.40;;;;;;5075163;28;20048;-72
2021/05/31 05:56:52;;;;;;;8.90;6.53;;;15.20;70.40;;;;;;5075507;28;20105;-72
2021/05/31 05:59:18;;;;;;;7.88;6.22;;;15.20;70.30;;;;;;5076689;28;20035;-72
2021/05/31 06:01:44;;;;;;;8.95;6.05;;;15.30;70.20;;;;;;5077003;28;20033;-73
2021/05/31 06:04:10;;;;;;;9.48;6.40;;;15.40;70.20;;;;;;5076426;28;20048;-72
2021/05/31 06:06:36;;;;;;;7.60;5.53;;;15.40;70.10;;;;;;5076393;28;20025;-72
2021/05/31 06:09:02;;;;;;;8.48;5.93;;;15.40;70.00;;;;;;5076353;28;20038;-72
2021/05/31 06:11:29;;;;;;;7.28;5.88;;;15.50;70.00;;;;;;5075815;28;20067;-73
2021/05/31 06:13:55;;;;;;;8.30;6.13;;;15.50;69.90;;;;;;5075622;28;20064;-73
2021/05/31 06:16:21;;;;;;;9.68;6.22;;;15.60;69.90;;;;;;5074833;28;20055;-73
2021/05/31 06:18:47;;;;;;;8.43;5.60;;;15.60;69.80;;;;;;5076273;28;20032;-73
2021/05/31 06:21:13;;;;;;;8.93;6.25;;;15.70;69.70;;;;;;5075898;28;20063;-73
2021/05/31 06:23:38;;;;;;;7.78;5.70;;;15.70;69.60;;;;;;5074676;28;20032;-73
2021/05/31 06:26:04;;;;;;;7.95;5.85;;;15.80;69.60;;;;;;5074632;28;20047;-73
2021/05/31 06:28:30;;;;;;;9.18;6.50;;;15.80;69.50;;;;;;5074614;28;20107;-72
2021/05/31 06:30:55;;;;;;;9.38;6.68;;;15.90;69.50;;;;;;5074600;28;20029;-73
2021/05/31 06:33:21;;;;;;;10.23;6.13;;;16.00;69.40;;;;;;5074457;28;20032;-72
2021/05/31 06:35:48;;;;;;;8.55;6.25;;;16.00;69.40;;;;;;5075788;28;20029;-73
2021/05/31 06:38:14;;;;;;;9.55;7.13;;;16.10;69.50;;;;;;5074713;28;20032;-73
2021/05/31 06:40:40;;;;;;;10.68;5.72;;;16.20;69.30;;;;;;5074447;28;20031;-73
2021/05/31 06:43:06;;;;;;;10.52;6.55;;;16.20;69.20;;;;;;5075782;28;20024;-73
2021/05/31 06:45:33;;;;;;;10.57;6.13;;;16.20;69.10;;;;;;5075743;28;20111;-73
2021/05/31 06:48:01;;;;;;;9.07;5.85;;;16.30;69.10;;;;;;5075656;28;20028;-73
2021/05/31 06:50:30;;;;;;;9.25;6.05;;;16.40;69.00;;;;;;5074236;28;20032;-72
2021/05/31 06:52:57;;;;;;;7.60;5.63;;;16.40;68.80;;;;;;5075630;28;20523;-73
2021/05/31 06:55:25;;;;;;;9.68;5.65;;;16.50;68.60;;;;;;5074571;28;20024;-73
2021/05/31 06:57:51;;;;;;;10.15;5.78;;;16.50;68.50;;;;;;5074136;28;20039;-73
2021/05/31 07:00:20;;;;;;;10.95;5.78;;;16.60;68.50;;;;;;5073950;28;20036;-73
2021/05/31 07:02:45;;;;;;;9.02;5.35;;;16.60;68.40;;;;;;5074211;28;20491;-72
2021/05/31 07:05:12;;;;;;;10.57;6.47;;;16.70;68.40;;;;;;5074078;28;20048;-73
2021/05/31 07:07:39;;;;;;;9.13;6.35;;;16.70;68.40;;;;;;5074012;28;20040;-73
2021/05/31 07:10:06;;;;;;;7.97;5.90;;;16.70;68.40;;;;;;5074070;28;20124;-73
2021/05/31 07:12:32;;;;;;;9.50;5.70;;;16.80;68.40;;;;;;5075041;28;20044;-73
2021/05/31 07:15:01;;;;;;;7.53;5.68;;;16.80;68.30;;;;;;5073992;28;20028;-72
2021/05/31 07:17:27;;;;;;;10.25;5.70;;;16.90;68.20;;;;;;5073947;28;20112;-73
2021/05/31 07:19:53;;;;;;;7.28;5.20;;;17.00;68.20;;;;;;5075435;28;20047;-72
2021/05/31 07:22:22;;;;;;;8.88;5.28;;;17.00;68.00;;;;;;5075968;28;20024;-72
2021/05/31 07:24:48;;;;;;;6.82;5.25;;;17.10;68.00;;;;;;5075511;28;20074;-69
2021/05/31 07:27:14;;;;;;;7.07;5.65;;;17.20;67.90;;;;;;5074020;28;20021;-69
2021/05/31 07:29:39;;;;;;;8.45;5.60;;;17.30;67.80;;;;;;5074004;28;20131;-70
2021/05/31 07:32:06;;;;;;;8.38;6.13;;;17.40;67.70;;;;;;5073940;28;20090;-70
2021/05/31 07:34:32;;;;;;;7.35;4.97;;;17.40;67.60;;;;;;5073841;28;20030;-71
2021/05/31 07:36:58;;;;;;;7.90;5.20;;;17.50;67.60;;;;;;5073923;28;20036;-70
2021/05/31 07:39:24;;;;;;;9.20;5.50;;;17.60;67.50;;;;;;5073864;28;20020;-71
2021/05/31 07:41:50;;;;;;;9.75;5.35;;;17.70;67.40;;;;;;5075070;28;20035;-70
2021/05/31 07:44:16;;;;;;;6.82;5.18;;;17.80;67.20;;;;;;5075242;28;20028;-71
2021/05/31 07:46:41;;;;;;;7.53;5.10;;;18.00;67.10;;;;;;5073709;28;20031;-70
2021/05/31 07:49:07;;;;;;;7.50;5.07;;;18.10;66.90;;;;;;5073585;28;20029;-71
2021/05/31 07:51:33;;;;;;;6.57;4.95;;;18.10;66.70;;;;;;5074908;28;20035;-72
2021/05/31 07:53:59;;;;;;;6.45;4.55;;;18.20;66.70;;;;;;5074970;28;20108;-71
2021/05/31 07:56:27;;;;;;;6.68;4.47;;;18.20;66.50;;;;;;5075323;28;20025;-72
2021/05/31 07:58:54;;;;;;;7.78;5.07;;;18.40;66.50;;;;;;5075008;28;20086;-72
2021/05/31 08:01:20;;;;;;;6.57;4.70;;;18.50;66.30;;;;;;5073442;28;20383;-72
2021/05/31 08:03:47;;;;;;;7.45;4.80;;;18.50;66.20;;;;;;5072945;28;20051;-71
2021/05/31 08:06:13;;;;;;;5.85;4.30;;;18.60;66.00;;;;;;5073354;28;20025;-71
2021/05/31 08:08:39;;;;;;;6.50;4.07;;;18.70;65.90;;;;;;5075622;28;20471;-73
2021/05/31 08:11:07;;;;;;;6.47;4.15;;;18.80;65.80;;;;;;5074365;28;20045;-72
2021/05/31 08:13:33;;;;;;;7.50;4.55;;;18.90;65.60;;;;;;5074375;28;20050;-72
2021/05/31 08:15:59;;;;;;;6.35;4.78;;;18.90;65.60;;;;;;5073141;28;20535;-73
2021/05/31 08:18:25;;;;;;;6.22;4.53;;;19.00;65.50;;;;;;5073066;28;20028;-73
2021/05/31 08:20:50;;;;;;;6.68;5.07;;;19.10;65.40;;;;;;5074446;28;20051;-72
2021/05/31 08:23:16;;;;;;;7.60;5.10;;;19.20;65.40;;;;;;5073291;28;20021;-73
2021/05/31 08:25:44;;;;;;;5.75;4.90;;;19.20;65.20;;;;;;5072930;28;20024;-73
2021/05/31 08:28:09;;;;;;;7.55;4.90;;;19.30;65.10;;;;;;5072783;28;20024;-73
2021/05/31 08:30:36;;;;;;;5.90;4.32;;;19.30;65.10;;;;;;5074331;28;20038;-72
2021/05/31 08:33:05;;;;;;;7.28;4.97;;;19.40;64.90;;;;;;5072660;28;20028;-73
2021/05/31 08:35:32;;;;;;;6.78;4.80;;;19.50;64.90;;;;;;5073878;28;20036;-72
2021/05/31 08:37:58;;;;;;;6.82;5.30;;;19.50;64.70;;;;;;5073875;28;20421;-73
2021/05/31 08:40:25;;;;;;;6.65;5.38;;;19.60;64.60;;;;;;5072440;28;20024;-73
2021/05/31 08:42:51;;;;;;;6.43;4.85;;;19.60;64.40;;;;;;5072548;28;20079;-73
2021/05/31 08:45:21;;;;;;;5.15;4.10;;;19.70;64.20;;;;;;5073690;28;20024;-73
2021/05/31 08:47:49;;;;;;;5.20;4.15;;;19.70;64.00;;;;;;5073865;28;20049;-73
2021/05/31 08:50:21;;;;;;;7.85;4.20;;;19.80;63.90;;;;;;5073642;28;20078;-73
2021/05/31 08:52:47;;;;;;;5.95;4.45;;;19.80;63.80;;;;;;5074274;28;20452;-72
2021/05/31 08:55:16;;;;;;;5.30;3.72;;;20.00;63.70;;;;;;5073872;28;20020;-72
2021/05/31 08:57:41;;;;;;;4.28;3.40;;;20.00;63.40;;;;;;5072174;28;20062;-73
2021/05/31 09:00:13;;;;;;;4.50;3.67;;;20.10;63.10;;;;;;5073533;28;20029;-73
2021/05/31 09:02:40;;;;;;;4.95;3.67;;;20.20;62.70;;;;;;5072062;28;20025;-72
2021/05/31 09:05:08;;;;;;;5.22;3.90;;;20.20;62.40;;;;;;5072104;28;20025;-75
2021/05/31 09:07:34;;;;;;;5.20;3.92;;;20.20;62.30;;;;;;5076384;28;20092;-75
2021/05/31 09:10:00;;;;;;;6.30;4.20;;;20.20;62.20;;;;;;5072759;28;20025;-72
2021/05/31 09:12:37;;;;;;;5.97;4.07;;;20.30;62.10;;;;;;5071745;28;20040;-71
2021/05/31 09:15:13;;;;;;;6.75;4.40;;;20.40;61.90;;;;;;5071167;28;20032;-72
2021/05/31 09:17:40;;;;;;;7.00;4.25;;;20.50;61.90;;;;;;5071844;28;20119;-72
2021/05/31 09:20:08;;;;;;;5.82;4.35;;;20.50;61.60;;;;;;5071806;28;20045;-72
2021/05/31 09:22:48;;;;;;;5.63;3.50;;;20.60;61.50;;;;;;5073111;28;20131;-72
2021/05/31 09:25:34;;;;;;;4.53;3.60;;;20.60;61.50;;;;;;5072104;28;20028;-72
2021/05/31 09:28:04;;;;;;;4.05;3.60;;;20.70;61.10;;;;;;5072319;28;20489;-72
2021/05/31 09:30:44;;;;;;;4.18;3.70;;;20.80;60.90;;;;;;5071874;28;20121;-73
2021/05/31 09:33:15;;;;;;;5.82;4.03;;;20.80;60.50;;;;;;5073395;28;20388;-72
2021/05/31 09:35:43;;;;;;;7.20;3.88;;;20.90;60.30;;;;;;5071781;28;20064;-72
2021/05/31 09:38:08;;;;;;;6.80;4.30;;;21.00;60.10;;;;;;5071756;28;20029;-72
2021/05/31 09:40:34;;;;;;;3.90;3.40;;;21.10;59.80;;;;;;5072863;28;20500;-72
2021/05/31 09:43:04;;;;;;;4.68;3.28;;;21.10;59.60;;;;;;5072979;28;20098;-72
2021/05/31 09:45:30;;;;;;;4.13;3.60;;;21.20;59.50;;;;;;5073105;28;20379;-73
2021/05/31 09:48:03;;;;;;;4.93;3.42;;;21.30;59.30;;;;;;5073569;28;20020;-72
2021/05/31 09:50:32;;;;;;;4.53;3.42;;;21.40;59.20;;;;;;5072823;28;20032;-72
2021/05/31 09:53:13;;;;;;;4.90;3.50;;;21.40;58.80;;;;;;5071645;28;20047;-73
2021/05/31 09:55:47;;;;;;;4.13;3.40;;;21.50;58.60;;;;;;5073130;28;20031;-72
2021/05/31 09:58:15;;;;;;;4.93;3.78;;;21.50;58.60;;;;;;5072489;28;20032;-73
2021/05/31 10:00:48;;;;;;;3.25;2.95;;;21.60;58.50;;;;;;5072550;28;20036;-72
2021/05/31 10:10:55;;;;;;;4.28;3.03;;;22.00;57.40;;;;;;5072937;28;20051;-74
2021/05/31 10:13:23;;;;;;;4.07;3.15;;;22.00;57.00;;;;;;5072478;28;20021;-73
2021/05/31 10:15:49;;;;;;;3.55;3.17;;;22.00;56.80;;;;;;5072935;28;20427;-75
2021/05/31 10:18:17;;;;;;;4.65;3.00;;;22.10;56.70;;;;;;5072688;28;20476;-75
2021/05/31 10:20:44;;;;;;;3.35;2.90;;;22.20;56.40;;;;;;5072754;28;20086;-74
2021/05/31 10:23:12;;;;;;;3.50;3.00;;;22.30;56.30;;;;;;5071321;28;20021;-74
2021/05/31 10:25:43;;;;;;;3.63;3.00;;;22.30;56.00;;;;;;5073742;28;20052;-73
2021/05/31 10:28:16;;;;;;;4.22;3.00;;;22.40;55.80;;;;;;5074796;28;20029;-74
2021/05/31 10:30:50;;;;;;;3.38;2.92;;;22.40;55.60;;;;;;5075913;28;20078;-74
2021/05/31 10:33:21;;;;;;;3.38;2.50;;;22.50;56.00;;;;;;5074583;28;20020;-74
2021/05/31 10:35:48;;;;;;;3.38;2.80;;;22.50;55.20;;;;;;5074481;28;20028;-74
2021/05/31 10:38:22;;;;;;;4.90;2.85;;;22.50;55.10;;;;;;5075658;28;20034;-73
2021/05/31 10:40:53;;;;;;;3.50;2.50;;;22.60;55.10;;;;;;5074125;28;20034;-73
2021/05/31 10:43:24;;;;;;;3.38;2.85;;;22.60;55.10;;;;;;5075715;28;20040;-73
2021/05/31 10:46:04;;;;;;;4.90;2.83;;;22.70;55.20;;;;;;5074432;28;20404;-72
2021/05/31 10:48:40;;;;;;;4.95;3.03;;;22.70;55.00;;;;;;5074158;28;20016;-74
2021/05/31 10:51:13;;;;;;;5.50;3.50;;;22.80;55.00;;;;;;5077530;28;20025;-74
2021/05/31 10:53:39;;;;;;;3.72;2.95;;;22.90;54.90;;;;;;5074313;28;20025;-77
2021/05/31 10:56:20;;;;;;;4.30;3.00;;;22.90;54.70;;;;;;5075648;28;20105;-76
2021/05/31 10:58:49;;;;;;;3.03;2.72;;;23.00;54.50;;;;;;5075558;28;20028;-76
2021/05/31 11:01:20;;;;;;;3.95;2.97;;;23.10;54.50;;;;;;5073965;28;20021;-75
2021/05/31 11:04:02;;;;;;;3.05;2.67;;;23.20;54.10;;;;;;5074465;28;20016;-75
2021/05/31 11:06:39;;;;;;;3.35;2.50;;;23.20;53.80;;;;;;5073844;28;20434;-76
2021/05/31 11:09:08;;;;;;;3.08;2.60;;;23.30;53.50;;;;;;5073942;28;20115;-75
2021/05/31 11:11:48;;;;;;;3.78;3.08;;;23.40;53.20;;;;;;5073926;28;20072;-75
2021/05/31 11:14:15;;;;;;;3.38;2.60;;;23.40;52.70;;;;;;5074133;28;20024;-76
2021/05/31 11:16:55;;;;;;;5.50;2.60;;;23.50;52.60;;;;;;5074030;28;20035;-76
2021/05/31 11:19:35;;;;;;;3.10;2.78;;;23.50;52.20;;;;;;5073827;28;20072;-76
2021/05/31 11:22:21;;;;;;;3.10;2.70;;;23.50;51.70;;;;;;5073651;28;20064;-75
2021/05/31 11:24:58;;;;;;;3.83;2.97;;;23.50;51.60;;;;;;5073809;28;20606;-75
2021/05/31 11:27:34;;;;;;;3.97;2.70;;;23.50;51.70;;;;;;5073682;28;20066;-75
2021/05/31 11:30:05;;;;;;;3.38;2.95;;;23.60;51.70;;;;;;5074929;28;20024;-75
2021/05/31 11:32:30;;;;;;;3.35;2.42;;;23.70;51.70;;;;;;5073551;28;20021;-75
2021/05/31 11:34:59;;;;;;;4.20;2.88;;;23.80;51.60;;;;;;5075086;28;20021;-75
2021/05/31 11:37:27;;;;;;;2.60;2.40;;;24.00;51.40;;;;;;5072479;28;20468;-74
2021/05/31 11:39:53;;;;;;;5.22;2.72;;;24.00;51.20;;;;;;5074600;28;20020;-74
2021/05/31 11:42:19;;;;;;;3.58;2.40;;;24.10;51.10;;;;;;5073409;28;20113;-74
2021/05/31 11:44:54;;;;;;;3.08;2.70;;;24.20;51.00;;;;;;5074744;28;20022;-74
2021/05/31 11:47:25;;;;;;;3.08;2.80;;;24.30;50.70;;;;;;5073274;28;20071;-74
2021/05/31 11:49:52;;;;;;;3.63;2.97;;;24.40;50.70;;;;;;5073369;28;20029;-74
2021/05/31 11:52:18;;;;;;;4.07;3.00;;;24.50;50.60;;;;;;5073211;28;20020;-75
2021/05/31 11:54:44;;;;;;;2.63;2.35;;;24.60;50.10;;;;;;5073176;28;20012;-74
2021/05/31 11:57:13;;;;;;;3.38;3.08;;;24.70;49.90;;;;;;5074320;28;20023;-74
2021/05/31 11:59:43;;;;;;;3.97;3.25;;;24.70;48.80;;;;;;5074461;28;20078;-74
2021/05/31 12:02:14;;;;;;;5.70;2.95;;;24.70;48.90;;;;;;5074228;28;20541;-69
2021/05/31 12:04:42;;;;;;;3.80;3.10;;;24.70;48.90;;;;;;5074003;28;20025;-69
2021/05/31 12:07:10;;;;;;;2.80;2.60;;;24.70;48.90;;;;;;5072677;28;20410;-69
2021/05/31 12:09:42;;;;;;;2.88;2.55;;;24.70;48.90;;;;;;5072682;28;20020;-69
2021/05/31 12:12:12;;;;;;;3.90;2.75;;;24.80;48.80;;;;;;5073818;28;20048;-69
2021/05/31 12:14:57;;;;;;;3.67;3.20;;;24.90;48.80;;;;;;5073852;28;20052;-69
2021/05/31 12:17:28;;;;;;;2.70;2.40;;;25.10;48.40;;;;;;5072294;28;20043;-69
2021/05/31 12:19:54;;;;;;;3.80;2.80;;;25.20;48.30;;;;;;5072110;28;20020;-69
2021/05/31 12:22:23;;;;;;;4.35;2.70;;;25.30;48.30;;;;;;5073540;28;20345;-69
2021/05/31 12:24:51;;;;;;;4.03;2.95;;;25.40;48.10;;;;;;5072206;28;20024;-69
2021/05/31 12:27:46;;;;;;;2.65;2.45;;;25.50;48.00;;;;;;5073198;28;20468;-69
2021/05/31 12:30:16;;;;;;;3.55;2.97;;;25.50;47.90;;;;;;5064194;28;20047;-69
2021/05/31 12:32:43;;;;;;;3.20;2.63;;;25.60;47.70;;;;;;5071875;28;20024;-69
2021/05/31 12:35:10;;;;;;;3.00;2.60;;;25.60;47.50;;;;;;5072166;28;20024;-69
2021/05/31 12:37:38;;;;;;;3.30;2.83;;;25.70;47.30;;;;;;5072845;28;20380;-69
2021/05/31 12:40:10;;;;;;;8.18;2.80;;;25.80;47.10;;;;;;5073623;28;20024;-69
2021/05/31 12:42:38;;;;;;;4.03;2.60;;;25.90;47.10;;;;;;5073278;28;20016;-69
2021/05/31 12:45:16;;;;;;;2.47;2.28;;;25.90;47.20;;;;;;5071952;28;20115;-69
2021/05/31 12:47:49;;;;;;;2.60;2.40;;;25.90;47.00;;;;;;5072052;28;20346;-69
2021/05/31 12:50:25;;;;;;;;;;;26.00;46.60;;;;;;5072122;28;20449;-69
2021/05/31 12:52:51;;;;;;;2.75;2.33;;;26.00;45.90;;;;;;5071684;28;20353;-69
2021/05/31 12:55:24;;;;;;;2.47;2.28;;;26.10;46.20;;;;;;5073035;28;20025;-69
2021/05/31 13:00:27;;;;;;;3.38;2.72;;;26.10;45.60;;;;;;5091375;28;20402;-80
2021/05/31 13:02:58;;;;;;;3.90;2.40;;;26.20;45.60;;;;;;5075701;28;20059;-79
2021/05/31 13:05:26;;;;;;;3.53;2.50;;;26.30;45.50;;;;;;5075339;28;20028;-80
2021/05/31 13:08:02;;;;;;;3.80;2.80;;;26.30;45.40;;;;;;5093817;28;20393;-80
2021/05/31 13:10:30;;;;;;;4.32;2.40;;;26.30;44.50;;;;;;5075323;28;20040;-80
2021/05/31 13:13:05;;;;;;;3.97;3.00;;;26.40;44.60;;;;;;5093277;28;20028;-79
2021/05/31 13:15:35;;;;;;;4.03;2.95;;;26.60;44.70;;;;;;5075145;28;20020;-79
2021/05/31 13:18:07;;;;;;;3.90;2.90;;;26.60;44.50;;;;;;5093337;28;20032;-80